< < Back
Terminal Aerodrome Forecast


Current Version              Previous Versions:   1  2  3  4  5  6  7  8  9  

Terminal Aerodrome Forecast

520
FTUS42 KMLB 070310 AAA
TAFMCO
TAF AMD
KMCO 070310Z 0703/0724 17003KT P6SM SCT150 OVC250
     FM071400 18004KT P6SM FEW030 SCT250
     FM072000 13008KT P6SM VCTS SCT040CB BKN060=

Latest METAR

614
SAUS70 KWBC 070358
MTRMCO
METAR KMCO 070353Z 00000KT 10SM BKN180 OVC260 24/22 A3013 RMK AO2 SLP203
T02390217


USA.gov is the U.S. government's official web portal to all federal, state and local government web resources and services.